sensor_id;sensor_type;location;lat;lon;timestamp;P1;durP1;ratioP1;P2;durP2;ratioP2
34035;SDS011;63481;52.588;22.472;2022-09-30T00:00:28;28.75;;;16.45;;
34035;SDS011;63481;52.588;22.472;2022-09-30T00:01:22;25.48;;;17.12;;
34035;SDS011;63481;52.588;22.472;2022-09-30T00:02:14;37.85;;;19.60;;
34035;SDS011;63481;52.588;22.472;2022-09-30T00:03:04;35.40;;;16.77;;
34035;SDS011;63481;52.588;22.472;2022-09-30T00:03:55;36.50;;;17.42;;
34035;SDS011;63481;52.588;22.472;2022-09-30T00:04:48;34.10;;;17.27;;
34035;SDS011;63481;52.588;22.472;2022-09-30T00:05:39;31.57;;;15.95;;
34035;SDS011;63481;52.588;22.472;2022-09-30T00:06:30;43.75;;;18.07;;
34035;SDS011;63481;52.588;22.472;2022-09-30T00:07:21;37.60;;;17.62;;
34035;SDS011;63481;52.588;22.472;2022-09-30T00:08:12;46.75;;;17.40;;
34035;SDS011;63481;52.588;22.472;2022-09-30T00:09:03;41.65;;;18.07;;
34035;SDS011;63481;52.588;22.472;2022-09-30T00:09:54;43.85;;;18.65;;
34035;SDS011;63481;52.588;22.472;2022-09-30T00:10:45;49.88;;;18.12;;
34035;SDS011;63481;52.588;22.472;2022-09-30T00:11:36;28.73;;;18.37;;
34035;SDS011;63481;52.588;22.472;2022-09-30T00:12:28;26.57;;;16.95;;
34035;SDS011;63481;52.588;22.472;2022-09-30T00:13:18;31.68;;;17.45;;
34035;SDS011;63481;52.588;22.472;2022-09-30T00:15:06;29.80;;;18.07;;
34035;SDS011;63481;52.588;22.472;2022-09-30T00:16:47;28.57;;;16.37;;
34035;SDS011;63481;52.588;22.472;2022-09-30T00:18:27;25.72;;;17.07;;
34035;SDS011;63481;52.588;22.472;2022-09-30T00:19:18;29.30;;;17.27;;
34035;SDS011;63481;52.588;22.472;2022-09-30T00:20:08;27.45;;;18.02;;
34035;SDS011;63481;52.588;22.472;2022-09-30T00:20:59;27.20;;;17.52;;
34035;SDS011;63481;52.588;22.472;2022-09-30T00:21:50;27.32;;;16.97;;
34035;SDS011;63481;52.588;22.472;2022-09-30T00:22:40;25.62;;;17.25;;
34035;SDS011;63481;52.588;22.472;2022-09-30T00:23:30;28.30;;;18.87;;
34035;SDS011;63481;52.588;22.472;2022-09-30T00:24:21;30.95;;;18.30;;
34035;SDS011;63481;52.588;22.472;2022-09-30T00:25:11;31.35;;;18.57;;
34035;SDS011;63481;52.588;22.472;2022-09-30T00:26:03;28.42;;;19.27;;
34035;SDS011;63481;52.588;22.472;2022-09-30T00:26:56;28.85;;;18.70;;
34035;SDS011;63481;52.588;22.472;2022-09-30T00:27:47;27.62;;;18.12;;
34035;SDS011;63481;52.588;22.472;2022-09-30T00:29:28;27.85;;;17.45;;
34035;SDS011;63481;52.588;22.472;2022-09-30T00:30:19;32.45;;;18.67;;
34035;SDS011;63481;52.588;22.472;2022-09-30T00:31:13;30.90;;;18.02;;
34035;SDS011;63481;52.588;22.472;2022-09-30T00:32:04;26.73;;;17.45;;
34035;SDS011;63481;52.588;22.472;2022-09-30T00:32:54;26.10;;;17.50;;
34035;SDS011;63481;52.588;22.472;2022-09-30T00:33:45;28.85;;;17.17;;
34035;SDS011;63481;52.588;22.472;2022-09-30T00:34:38;33.15;;;19.77;;
34035;SDS011;63481;52.588;22.472;2022-09-30T00:35:28;29.63;;;18.45;;
34035;SDS011;63481;52.588;22.472;2022-09-30T00:37:09;30.00;;;17.87;;
34035;SDS011;63481;52.588;22.472;2022-09-30T00:38:01;27.50;;;17.42;;
34035;SDS011;63481;52.588;22.472;2022-09-30T00:39:42;32.55;;;17.82;;
34035;SDS011;63481;52.588;22.472;2022-09-30T00:41:23;30.85;;;19.65;;
34035;SDS011;63481;52.588;22.472;2022-09-30T00:42:14;33.33;;;20.30;;
34035;SDS011;63481;52.588;22.472;2022-09-30T00:43:15;34.53;;;21.02;;
34035;SDS011;63481;52.588;22.472;2022-09-30T00:45:32;33.10;;;19.92;;
34035;SDS011;63481;52.588;22.472;2022-09-30T00:46:33;33.20;;;20.50;;
34035;SDS011;63481;52.588;22.472;2022-09-30T00:48:35;31.65;;;20.72;;
34035;SDS011;63481;52.588;22.472;2022-09-30T00:49:27;31.87;;;21.85;;
34035;SDS011;63481;52.588;22.472;2022-09-30T00:50:25;29.30;;;19.42;;
34035;SDS011;63481;52.588;22.472;2022-09-30T00:51:35;31.15;;;20.82;;
34035;SDS011;63481;52.588;22.472;2022-09-30T00:52:28;32.48;;;20.05;;
34035;SDS011;63481;52.588;22.472;2022-09-30T00:53:29;28.75;;;19.65;;
34035;SDS011;63481;52.588;22.472;2022-09-30T00:54:25;27.70;;;18.90;;
34035;SDS011;63481;52.588;22.472;2022-09-30T00:55:32;26.48;;;19.15;;
34035;SDS011;63481;52.588;22.472;2022-09-30T00:56:38;26.97;;;19.07;;
34035;SDS011;63481;52.588;22.472;2022-09-30T00:57:31;27.73;;;18.25;;
34035;SDS011;63481;52.588;22.472;2022-09-30T00:59:22;28.67;;;18.67;;
34035;SDS011;63481;52.588;22.472;2022-09-30T01:00:15;26.85;;;18.00;;
34035;SDS011;63481;52.588;22.472;2022-09-30T01:01:05;25.57;;;16.87;;
34035;SDS011;63481;52.588;22.472;2022-09-30T01:01:56;29.52;;;17.48;;
34035;SDS011;63481;52.588;22.472;2022-09-30T01:02:47;25.77;;;18.07;;
34035;SDS011;63481;52.588;22.472;2022-09-30T01:03:40;28.02;;;17.35;;
34035;SDS011;63481;52.588;22.472;2022-09-30T01:04:32;25.12;;;16.87;;
34035;SDS011;63481;52.588;22.472;2022-09-30T01:05:24;24.60;;;16.73;;
34035;SDS011;63481;52.588;22.472;2022-09-30T01:06:16;24.37;;;16.60;;
34035;SDS011;63481;52.588;22.472;2022-09-30T01:07:08;26.27;;;17.35;;
34035;SDS011;63481;52.588;22.472;2022-09-30T01:07:59;26.25;;;17.65;;
34035;SDS011;63481;52.588;22.472;2022-09-30T01:08:52;24.80;;;16.70;;
34035;SDS011;63481;52.588;22.472;2022-09-30T01:09:43;26.68;;;16.32;;
34035;SDS011;63481;52.588;22.472;2022-09-30T01:10:34;29.98;;;16.93;;
34035;SDS011;63481;52.588;22.472;2022-09-30T01:11:26;24.02;;;16.75;;
34035;SDS011;63481;52.588;22.472;2022-09-30T01:12:18;23.30;;;15.10;;
34035;SDS011;63481;52.588;22.472;2022-09-30T01:13:11;26.20;;;16.35;;
34035;SDS011;63481;52.588;22.472;2022-09-30T01:14:10;21.33;;;15.00;;
34035;SDS011;63481;52.588;22.472;2022-09-30T01:14:59;26.02;;;15.72;;
34035;SDS011;63481;52.588;22.472;2022-09-30T01:17:10;25.70;;;15.13;;
34035;SDS011;63481;52.588;22.472;2022-09-30T01:18:30;24.50;;;13.90;;
34035;SDS011;63481;52.588;22.472;2022-09-30T01:21:37;18.40;;;10.90;;
34035;SDS011;63481;52.588;22.472;2022-09-30T01:22:34;15.63;;;9.18;;
34035;SDS011;63481;52.588;22.472;2022-09-30T01:28:23;20.35;;;13.28;;
34035;SDS011;63481;52.588;22.472;2022-09-30T01:30:22;22.25;;;14.53;;
34035;SDS011;63481;52.588;22.472;2022-09-30T01:33:02;19.57;;;13.18;;
34035;SDS011;63481;52.588;22.472;2022-09-30T01:35:02;22.95;;;13.13;;
34035;SDS011;63481;52.588;22.472;2022-09-30T01:37:19;23.87;;;15.15;;
34035;SDS011;63481;52.588;22.472;2022-09-30T01:38:17;23.22;;;15.70;;
34035;SDS011;63481;52.588;22.472;2022-09-30T01:39:31;23.70;;;15.80;;
34035;SDS011;63481;52.588;22.472;2022-09-30T01:41:41;25.88;;;16.60;;
34035;SDS011;63481;52.588;22.472;2022-09-30T01:45:41;62.23;;;14.20;;
34035;SDS011;63481;52.588;22.472;2022-09-30T01:46:37;14.43;;;9.20;;
34035;SDS011;63481;52.588;22.472;2022-09-30T01:47:42;38.15;;;11.45;;
34035;SDS011;63481;52.588;22.472;2022-09-30T01:48:40;23.10;;;13.30;;
34035;SDS011;63481;52.588;22.472;2022-09-30T01:49:42;23.05;;;16.40;;
34035;SDS011;63481;52.588;22.472;2022-09-30T01:50:46;23.07;;;15.25;;
34035;SDS011;63481;52.588;22.472;2022-09-30T01:51:42;21.17;;;15.28;;
34035;SDS011;63481;52.588;22.472;2022-09-30T01:52:37;22.93;;;15.78;;
34035;SDS011;63481;52.588;22.472;2022-09-30T01:55:44;22.07;;;14.43;;
34035;SDS011;63481;52.588;22.472;2022-09-30T01:56:42;25.48;;;16.40;;
34035;SDS011;63481;52.588;22.472;2022-09-30T01:57:41;22.62;;;14.87;;
34035;SDS011;63481;52.588;22.472;2022-09-30T01:58:49;23.38;;;15.78;;
34035;SDS011;63481;52.588;22.472;2022-09-30T01:59:49;19.50;;;13.70;;
34035;SDS011;63481;52.588;22.472;2022-09-30T02:00:59;22.32;;;13.88;;
34035;SDS011;63481;52.588;22.472;2022-09-30T02:01:57;24.75;;;14.33;;
34035;SDS011;63481;52.588;22.472;2022-09-30T02:02:47;20.72;;;14.83;;
34035;SDS011;63481;52.588;22.472;2022-09-30T02:03:55;21.23;;;14.73;;
34035;SDS011;63481;52.588;22.472;2022-09-30T02:04:49;20.32;;;14.05;;
34035;SDS011;63481;52.588;22.472;2022-09-30T02:06:02;22.37;;;14.60;;
34035;SDS011;63481;52.588;22.472;2022-09-30T02:06:56;24.98;;;14.55;;
34035;SDS011;63481;52.588;22.472;2022-09-30T02:07:50;21.40;;;14.10;;
34035;SDS011;63481;52.588;22.472;2022-09-30T02:09:50;21.27;;;15.08;;
34035;SDS011;63481;52.588;22.472;2022-09-30T02:11:45;22.02;;;14.25;;
34035;SDS011;63481;52.588;22.472;2022-09-30T02:13:34;23.35;;;13.53;;
34035;SDS011;63481;52.588;22.472;2022-09-30T02:14:43;23.73;;;14.25;;
34035;SDS011;63481;52.588;22.472;2022-09-30T02:15:37;22.80;;;14.70;;
34035;SDS011;63481;52.588;22.472;2022-09-30T02:16:36;21.80;;;14.83;;
34035;SDS011;63481;52.588;22.472;2022-09-30T02:18:28;25.77;;;16.67;;
34035;SDS011;63481;52.588;22.472;2022-09-30T02:19:36;21.90;;;14.85;;
34035;SDS011;63481;52.588;22.472;2022-09-30T02:20:35;21.42;;;14.07;;
34035;SDS011;63481;52.588;22.472;2022-09-30T02:21:29;33.33;;;15.93;;
34035;SDS011;63481;52.588;22.472;2022-09-30T02:22:29;24.63;;;17.57;;
34035;SDS011;63481;52.588;22.472;2022-09-30T02:23:30;24.35;;;17.27;;
34035;SDS011;63481;52.588;22.472;2022-09-30T02:24:22;24.77;;;17.20;;
34035;SDS011;63481;52.588;22.472;2022-09-30T02:25:16;20.85;;;14.93;;
34035;SDS011;63481;52.588;22.472;2022-09-30T02:26:13;24.87;;;15.93;;
34035;SDS011;63481;52.588;22.472;2022-09-30T02:27:11;24.55;;;15.32;;
34035;SDS011;63481;52.588;22.472;2022-09-30T02:28:09;24.23;;;16.05;;
34035;SDS011;63481;52.588;22.472;2022-09-30T02:29:19;23.12;;;15.88;;
34035;SDS011;63481;52.588;22.472;2022-09-30T02:30:08;27.13;;;15.95;;
34035;SDS011;63481;52.588;22.472;2022-09-30T02:31:01;23.50;;;15.78;;
34035;SDS011;63481;52.588;22.472;2022-09-30T02:31:55;25.77;;;16.85;;
34035;SDS011;63481;52.588;22.472;2022-09-30T02:32:55;30.23;;;18.67;;
34035;SDS011;63481;52.588;22.472;2022-09-30T02:33:52;28.67;;;18.87;;
34035;SDS011;63481;52.588;22.472;2022-09-30T02:34:56;46.70;;;20.92;;
34035;SDS011;63481;52.588;22.472;2022-09-30T02:35:49;36.25;;;19.52;;
34035;SDS011;63481;52.588;22.472;2022-09-30T02:36:48;25.62;;;16.70;;
34035;SDS011;63481;52.588;22.472;2022-09-30T02:37:53;26.07;;;15.00;;
34035;SDS011;63481;52.588;22.472;2022-09-30T02:38:58;24.85;;;15.78;;
34035;SDS011;63481;52.588;22.472;2022-09-30T02:39:55;23.65;;;15.08;;
34035;SDS011;63481;52.588;22.472;2022-09-30T02:40:51;26.52;;;15.58;;
34035;SDS011;63481;52.588;22.472;2022-09-30T02:41:46;22.37;;;14.75;;
34035;SDS011;63481;52.588;22.472;2022-09-30T02:42:41;22.02;;;14.15;;
34035;SDS011;63481;52.588;22.472;2022-09-30T02:43:32;22.40;;;14.47;;
34035;SDS011;63481;52.588;22.472;2022-09-30T02:44:23;22.93;;;16.12;;
34035;SDS011;63481;52.588;22.472;2022-09-30T02:45:15;24.15;;;16.50;;
34035;SDS011;63481;52.588;22.472;2022-09-30T02:46:09;24.27;;;16.15;;
34035;SDS011;63481;52.588;22.472;2022-09-30T02:47:07;22.95;;;16.07;;
34035;SDS011;63481;52.588;22.472;2022-09-30T02:48:05;26.45;;;16.30;;
34035;SDS011;63481;52.588;22.472;2022-09-30T02:52:25;22.75;;;14.73;;
34035;SDS011;63481;52.588;22.472;2022-09-30T02:54:55;22.60;;;14.15;;
34035;SDS011;63481;52.588;22.472;2022-09-30T02:59:02;21.45;;;13.45;;
34035;SDS011;63481;52.588;22.472;2022-09-30T02:59:53;21.12;;;13.93;;
34035;SDS011;63481;52.588;22.472;2022-09-30T03:00:43;22.48;;;14.60;;
34035;SDS011;63481;52.588;22.472;2022-09-30T03:02:24;26.15;;;15.35;;
34035;SDS011;63481;52.588;22.472;2022-09-30T03:03:16;27.30;;;15.28;;
34035;SDS011;63481;52.588;22.472;2022-09-30T03:04:24;22.15;;;14.28;;
34035;SDS011;63481;52.588;22.472;2022-09-30T03:05:17;21.33;;;15.05;;
34035;SDS011;63481;52.588;22.472;2022-09-30T03:06:07;23.07;;;15.45;;
34035;SDS011;63481;52.588;22.472;2022-09-30T03:06:58;24.00;;;16.90;;
34035;SDS011;63481;52.588;22.472;2022-09-30T03:07:49;23.73;;;16.15;;
34035;SDS011;63481;52.588;22.472;2022-09-30T03:08:39;23.90;;;16.05;;
34035;SDS011;63481;52.588;22.472;2022-09-30T03:09:29;23.75;;;16.90;;
34035;SDS011;63481;52.588;22.472;2022-09-30T03:10:20;23.98;;;16.90;;
34035;SDS011;63481;52.588;22.472;2022-09-30T03:11:13;26.02;;;16.70;;
34035;SDS011;63481;52.588;22.472;2022-09-30T03:12:21;25.97;;;17.15;;
34035;SDS011;63481;52.588;22.472;2022-09-30T03:13:31;27.70;;;18.12;;
34035;SDS011;63481;52.588;22.472;2022-09-30T03:14:44;26.40;;;17.25;;
34035;SDS011;63481;52.588;22.472;2022-09-30T03:17:47;25.00;;;13.78;;
34035;SDS011;63481;52.588;22.472;2022-09-30T03:19:01;18.48;;;11.95;;
34035;SDS011;63481;52.588;22.472;2022-09-30T03:21:11;21.52;;;13.08;;
34035;SDS011;63481;52.588;22.472;2022-09-30T03:25:01;25.95;;;14.53;;
34035;SDS011;63481;52.588;22.472;2022-09-30T03:26:14;23.95;;;15.58;;
34035;SDS011;63481;52.588;22.472;2022-09-30T03:27:25;19.37;;;12.65;;
34035;SDS011;63481;52.588;22.472;2022-09-30T03:30:29;21.42;;;14.03;;
34035;SDS011;63481;52.588;22.472;2022-09-30T03:35:37;28.50;;;18.05;;
34035;SDS011;63481;52.588;22.472;2022-09-30T03:37:32;29.98;;;17.85;;
34035;SDS011;63481;52.588;22.472;2022-09-30T03:42:21;24.82;;;15.40;;
34035;SDS011;63481;52.588;22.472;2022-09-30T03:44:35;25.88;;;15.55;;
34035;SDS011;63481;52.588;22.472;2022-09-30T03:45:35;26.30;;;15.03;;
34035;SDS011;63481;52.588;22.472;2022-09-30T03:47:18;22.80;;;15.48;;
34035;SDS011;63481;52.588;22.472;2022-09-30T03:48:11;23.57;;;15.58;;
34035;SDS011;63481;52.588;22.472;2022-09-30T03:49:04;24.40;;;15.68;;
34035;SDS011;63481;52.588;22.472;2022-09-30T03:49:58;22.62;;;14.40;;
34035;SDS011;63481;52.588;22.472;2022-09-30T03:50:51;20.12;;;14.78;;
34035;SDS011;63481;52.588;22.472;2022-09-30T03:51:42;23.12;;;15.58;;
34035;SDS011;63481;52.588;22.472;2022-09-30T03:52:32;22.17;;;15.05;;
34035;SDS011;63481;52.588;22.472;2022-09-30T03:53:23;24.40;;;16.05;;
34035;SDS011;63481;52.588;22.472;2022-09-30T03:54:16;23.98;;;15.90;;
34035;SDS011;63481;52.588;22.472;2022-09-30T03:55:58;21.93;;;14.43;;
34035;SDS011;63481;52.588;22.472;2022-09-30T03:57:39;22.75;;;13.32;;
34035;SDS011;63481;52.588;22.472;2022-09-30T03:58:30;20.65;;;13.20;;
34035;SDS011;63481;52.588;22.472;2022-09-30T04:00:16;17.95;;;13.22;;
34035;SDS011;63481;52.588;22.472;2022-09-30T04:01:07;20.80;;;13.68;;
34035;SDS011;63481;52.588;22.472;2022-09-30T04:02:10;20.40;;;12.73;;
34035;SDS011;63481;52.588;22.472;2022-09-30T04:03:01;22.85;;;13.05;;
34035;SDS011;63481;52.588;22.472;2022-09-30T04:04:42;18.82;;;12.00;;
34035;SDS011;63481;52.588;22.472;2022-09-30T04:05:33;21.15;;;12.50;;
34035;SDS011;63481;52.588;22.472;2022-09-30T04:06:23;17.82;;;12.05;;
34035;SDS011;63481;52.588;22.472;2022-09-30T04:07:14;21.17;;;13.13;;
34035;SDS011;63481;52.588;22.472;2022-09-30T04:08:04;16.80;;;12.00;;
34035;SDS011;63481;52.588;22.472;2022-09-30T04:08:54;17.35;;;11.85;;
34035;SDS011;63481;52.588;22.472;2022-09-30T04:09:45;26.73;;;14.45;;
34035;SDS011;63481;52.588;22.472;2022-09-30T04:10:37;20.12;;;14.07;;
34035;SDS011;63481;52.588;22.472;2022-09-30T04:11:32;19.42;;;13.65;;
34035;SDS011;63481;52.588;22.472;2022-09-30T04:12:23;21.68;;;14.07;;
34035;SDS011;63481;52.588;22.472;2022-09-30T04:13:14;26.00;;;17.23;;
34035;SDS011;63481;52.588;22.472;2022-09-30T04:14:04;24.75;;;17.42;;
34035;SDS011;63481;52.588;22.472;2022-09-30T04:14:55;24.40;;;16.32;;
34035;SDS011;63481;52.588;22.472;2022-09-30T04:15:51;24.55;;;16.10;;
34035;SDS011;63481;52.588;22.472;2022-09-30T04:16:39;23.55;;;16.05;;
34035;SDS011;63481;52.588;22.472;2022-09-30T04:17:30;22.50;;;15.80;;
34035;SDS011;63481;52.588;22.472;2022-09-30T04:19:11;19.98;;;13.30;;
34035;SDS011;63481;52.588;22.472;2022-09-30T04:20:01;21.75;;;13.80;;
34035;SDS011;63481;52.588;22.472;2022-09-30T04:20:51;24.32;;;16.23;;
34035;SDS011;63481;52.588;22.472;2022-09-30T04:21:42;22.07;;;15.50;;
34035;SDS011;63481;52.588;22.472;2022-09-30T04:23:23;23.18;;;15.18;;
34035;SDS011;63481;52.588;22.472;2022-09-30T04:24:13;23.77;;;16.10;;
34035;SDS011;63481;52.588;22.472;2022-09-30T04:25:04;26.73;;;18.67;;
34035;SDS011;63481;52.588;22.472;2022-09-30T04:25:56;30.65;;;22.95;;
34035;SDS011;63481;52.588;22.472;2022-09-30T04:26:46;26.42;;;20.37;;
34035;SDS011;63481;52.588;22.472;2022-09-30T04:27:37;23.62;;;16.70;;
34035;SDS011;63481;52.588;22.472;2022-09-30T04:28:28;24.82;;;16.82;;
34035;SDS011;63481;52.588;22.472;2022-09-30T04:29:18;23.12;;;15.43;;
34035;SDS011;63481;52.588;22.472;2022-09-30T04:30:09;21.02;;;14.63;;
34035;SDS011;63481;52.588;22.472;2022-09-30T04:31:00;21.80;;;15.00;;
34035;SDS011;63481;52.588;22.472;2022-09-30T04:31:52;21.93;;;13.85;;
34035;SDS011;63481;52.588;22.472;2022-09-30T04:32:43;19.92;;;14.30;;
34035;SDS011;63481;52.588;22.472;2022-09-30T04:33:33;20.85;;;14.55;;
34035;SDS011;63481;52.588;22.472;2022-09-30T04:34:24;20.50;;;14.70;;
34035;SDS011;63481;52.588;22.472;2022-09-30T04:35:15;21.52;;;13.78;;
34035;SDS011;63481;52.588;22.472;2022-09-30T04:36:05;23.10;;;15.23;;
34035;SDS011;63481;52.588;22.472;2022-09-30T04:36:56;26.62;;;16.17;;
34035;SDS011;63481;52.588;22.472;2022-09-30T04:37:46;23.47;;;16.32;;
34035;SDS011;63481;52.588;22.472;2022-09-30T04:38:37;23.87;;;15.68;;
34035;SDS011;63481;52.588;22.472;2022-09-30T04:39:27;20.25;;;14.20;;
34035;SDS011;63481;52.588;22.472;2022-09-30T04:40:18;21.55;;;14.45;;
34035;SDS011;63481;52.588;22.472;2022-09-30T04:41:10;25.52;;;15.78;;
34035;SDS011;63481;52.588;22.472;2022-09-30T04:42:03;22.13;;;14.80;;
34035;SDS011;63481;52.588;22.472;2022-09-30T04:42:55;39.33;;;15.45;;
34035;SDS011;63481;52.588;22.472;2022-09-30T04:43:47;24.32;;;14.93;;
34035;SDS011;63481;52.588;22.472;2022-09-30T04:44:37;26.97;;;17.12;;
34035;SDS011;63481;52.588;22.472;2022-09-30T04:45:28;22.05;;;16.55;;
34035;SDS011;63481;52.588;22.472;2022-09-30T04:46:19;20.68;;;14.07;;
34035;SDS011;63481;52.588;22.472;2022-09-30T04:47:11;21.73;;;14.13;;
34035;SDS011;63481;52.588;22.472;2022-09-30T04:48:02;20.68;;;14.18;;
34035;SDS011;63481;52.588;22.472;2022-09-30T04:48:52;21.12;;;14.15;;
34035;SDS011;63481;52.588;22.472;2022-09-30T04:49:43;21.33;;;14.30;;
34035;SDS011;63481;52.588;22.472;2022-09-30T04:50:33;21.35;;;13.78;;
34035;SDS011;63481;52.588;22.472;2022-09-30T04:51:24;20.35;;;14.38;;
34035;SDS011;63481;52.588;22.472;2022-09-30T04:52:16;22.02;;;14.85;;
34035;SDS011;63481;52.588;22.472;2022-09-30T04:53:07;21.25;;;14.65;;
34035;SDS011;63481;52.588;22.472;2022-09-30T04:53:59;25.35;;;17.32;;
34035;SDS011;63481;52.588;22.472;2022-09-30T04:54:50;22.32;;;15.68;;
34035;SDS011;63481;52.588;22.472;2022-09-30T04:56:31;19.27;;;13.22;;
34035;SDS011;63481;52.588;22.472;2022-09-30T04:57:22;19.12;;;13.48;;
34035;SDS011;63481;52.588;22.472;2022-09-30T04:58:12;18.95;;;13.22;;
34035;SDS011;63481;52.588;22.472;2022-09-30T04:59:02;19.90;;;12.75;;
34035;SDS011;63481;52.588;22.472;2022-09-30T04:59:53;20.88;;;13.90;;
34035;SDS011;63481;52.588;22.472;2022-09-30T05:00:44;18.75;;;13.53;;
34035;SDS011;63481;52.588;22.472;2022-09-30T05:01:34;18.23;;;13.38;;
34035;SDS011;63481;52.588;22.472;2022-09-30T05:02:25;20.65;;;12.85;;
34035;SDS011;63481;52.588;22.472;2022-09-30T05:04:06;16.65;;;11.50;;
34035;SDS011;63481;52.588;22.472;2022-09-30T05:04:56;16.05;;;11.15;;
34035;SDS011;63481;52.588;22.472;2022-09-30T05:05:47;17.27;;;11.63;;
34035;SDS011;63481;52.588;22.472;2022-09-30T05:06:38;18.17;;;11.53;;
34035;SDS011;63481;52.588;22.472;2022-09-30T05:07:29;18.55;;;12.73;;
34035;SDS011;63481;52.588;22.472;2022-09-30T05:08:20;18.05;;;12.25;;
34035;SDS011;63481;52.588;22.472;2022-09-30T05:09:11;22.98;;;13.72;;
34035;SDS011;63481;52.588;22.472;2022-09-30T05:10:02;17.50;;;12.37;;
34035;SDS011;63481;52.588;22.472;2022-09-30T05:10:57;18.77;;;13.50;;
34035;SDS011;63481;52.588;22.472;2022-09-30T05:11:49;18.82;;;12.47;;
34035;SDS011;63481;52.588;22.472;2022-09-30T05:12:39;19.55;;;12.78;;
34035;SDS011;63481;52.588;22.472;2022-09-30T05:13:33;18.73;;;13.55;;
34035;SDS011;63481;52.588;22.472;2022-09-30T05:14:24;17.20;;;12.15;;
34035;SDS011;63481;52.588;22.472;2022-09-30T05:15:14;19.07;;;13.28;;
34035;SDS011;63481;52.588;22.472;2022-09-30T05:16:55;17.48;;;11.85;;
34035;SDS011;63481;52.588;22.472;2022-09-30T05:17:47;17.62;;;12.30;;
34035;SDS011;63481;52.588;22.472;2022-09-30T05:18:38;19.12;;;12.18;;
34035;SDS011;63481;52.588;22.472;2022-09-30T05:19:31;18.20;;;12.65;;
34035;SDS011;63481;52.588;22.472;2022-09-30T05:20:21;19.07;;;12.80;;
34035;SDS011;63481;52.588;22.472;2022-09-30T05:22:02;17.45;;;12.07;;
34035;SDS011;63481;52.588;22.472;2022-09-30T05:23:44;17.23;;;11.38;;
34035;SDS011;63481;52.588;22.472;2022-09-30T05:24:35;15.80;;;10.40;;
34035;SDS011;63481;52.588;22.472;2022-09-30T05:25:25;17.50;;;11.85;;
34035;SDS011;63481;52.588;22.472;2022-09-30T05:26:16;17.20;;;11.73;;
34035;SDS011;63481;52.588;22.472;2022-09-30T05:27:06;21.65;;;12.37;;
34035;SDS011;63481;52.588;22.472;2022-09-30T05:27:56;17.60;;;12.10;;
34035;SDS011;63481;52.588;22.472;2022-09-30T05:28:46;17.67;;;11.68;;
34035;SDS011;63481;52.588;22.472;2022-09-30T05:29:37;15.83;;;11.30;;
34035;SDS011;63481;52.588;22.472;2022-09-30T05:30:28;16.40;;;11.40;;
34035;SDS011;63481;52.588;22.472;2022-09-30T05:32:12;16.15;;;10.65;;
34035;SDS011;63481;52.588;22.472;2022-09-30T05:33:52;17.25;;;9.55;;
34035;SDS011;63481;52.588;22.472;2022-09-30T05:34:43;14.13;;;10.10;;
34035;SDS011;63481;52.588;22.472;2022-09-30T05:36:24;13.95;;;9.68;;
34035;SDS011;63481;52.588;22.472;2022-09-30T05:37:15;15.70;;;9.90;;
34035;SDS011;63481;52.588;22.472;2022-09-30T05:38:06;15.65;;;9.80;;
34035;SDS011;63481;52.588;22.472;2022-09-30T05:38:57;14.13;;;9.80;;
34035;SDS011;63481;52.588;22.472;2022-09-30T05:39:48;20.57;;;10.20;;
34035;SDS011;63481;52.588;22.472;2022-09-30T05:40:39;14.85;;;10.35;;
34035;SDS011;63481;52.588;22.472;2022-09-30T05:41:29;15.08;;;10.23;;
34035;SDS011;63481;52.588;22.472;2022-09-30T05:43:10;14.40;;;9.88;;
34035;SDS011;63481;52.588;22.472;2022-09-30T05:44:01;15.18;;;9.58;;
34035;SDS011;63481;52.588;22.472;2022-09-30T05:44:51;15.88;;;10.55;;
34035;SDS011;63481;52.588;22.472;2022-09-30T05:45:41;16.57;;;10.78;;
34035;SDS011;63481;52.588;22.472;2022-09-30T05:46:34;15.93;;;9.75;;
34035;SDS011;63481;52.588;22.472;2022-09-30T05:47:24;15.20;;;10.10;;
34035;SDS011;63481;52.588;22.472;2022-09-30T05:48:15;14.87;;;10.60;;
34035;SDS011;63481;52.588;22.472;2022-09-30T05:49:05;16.02;;;10.28;;
34035;SDS011;63481;52.588;22.472;2022-09-30T05:49:56;18.35;;;12.45;;
34035;SDS011;63481;52.588;22.472;2022-09-30T05:50:46;21.02;;;15.55;;
34035;SDS011;63481;52.588;22.472;2022-09-30T05:51:39;24.90;;;16.75;;
34035;SDS011;63481;52.588;22.472;2022-09-30T05:52:29;25.85;;;18.98;;
34035;SDS011;63481;52.588;22.472;2022-09-30T05:55:01;42.70;;;32.00;;
34035;SDS011;63481;52.588;22.472;2022-09-30T05:55:52;33.13;;;23.60;;
34035;SDS011;63481;52.588;22.472;2022-09-30T05:56:43;31.12;;;20.32;;
34035;SDS011;63481;52.588;22.472;2022-09-30T05:58:24;27.62;;;19.48;;
34035;SDS011;63481;52.588;22.472;2022-09-30T05:59:15;25.50;;;17.20;;
34035;SDS011;63481;52.588;22.472;2022-09-30T06:00:06;31.73;;;19.23;;
34035;SDS011;63481;52.588;22.472;2022-09-30T06:01:03;36.00;;;21.35;;
34035;SDS011;63481;52.588;22.472;2022-09-30T06:01:56;35.15;;;22.05;;
34035;SDS011;63481;52.588;22.472;2022-09-30T06:02:49;40.17;;;28.20;;
34035;SDS011;63481;52.588;22.472;2022-09-30T06:03:42;30.37;;;19.95;;
34035;SDS011;63481;52.588;22.472;2022-09-30T06:04:33;23.52;;;17.27;;
34035;SDS011;63481;52.588;22.472;2022-09-30T06:06:14;22.15;;;16.15;;
34035;SDS011;63481;52.588;22.472;2022-09-30T06:07:05;21.15;;;17.48;;
34035;SDS011;63481;52.588;22.472;2022-09-30T06:07:55;21.93;;;15.88;;
34035;SDS011;63481;52.588;22.472;2022-09-30T06:08:46;23.15;;;18.50;;
34035;SDS011;63481;52.588;22.472;2022-09-30T06:09:36;22.48;;;16.25;;
34035;SDS011;63481;52.588;22.472;2022-09-30T06:10:27;21.37;;;15.08;;
34035;SDS011;63481;52.588;22.472;2022-09-30T06:11:19;19.10;;;13.50;;
34035;SDS011;63481;52.588;22.472;2022-09-30T06:12:12;18.42;;;13.78;;
34035;SDS011;63481;52.588;22.472;2022-09-30T06:13:04;17.42;;;13.55;;
34035;SDS011;63481;52.588;22.472;2022-09-30T06:13:54;22.42;;;14.93;;
34035;SDS011;63481;52.588;22.472;2022-09-30T06:14:45;20.92;;;13.98;;
34035;SDS011;63481;52.588;22.472;2022-09-30T06:15:36;17.73;;;12.80;;
34035;SDS011;63481;52.588;22.472;2022-09-30T06:16:28;17.20;;;12.58;;
34035;SDS011;63481;52.588;22.472;2022-09-30T06:17:19;16.45;;;11.68;;
34035;SDS011;63481;52.588;22.472;2022-09-30T06:18:10;14.78;;;11.15;;
34035;SDS011;63481;52.588;22.472;2022-09-30T06:19:01;15.35;;;11.20;;
34035;SDS011;63481;52.588;22.472;2022-09-30T06:20:42;15.98;;;10.98;;
34035;SDS011;63481;52.588;22.472;2022-09-30T06:21:32;16.30;;;11.57;;
34035;SDS011;63481;52.588;22.472;2022-09-30T06:23:12;18.10;;;11.95;;
34035;SDS011;63481;52.588;22.472;2022-09-30T06:24:03;15.48;;;11.85;;
34035;SDS011;63481;52.588;22.472;2022-09-30T06:24:54;14.85;;;10.95;;
34035;SDS011;63481;52.588;22.472;2022-09-30T06:25:44;16.62;;;11.97;;
34035;SDS011;63481;52.588;22.472;2022-09-30T06:26:37;15.70;;;11.75;;
34035;SDS011;63481;52.588;22.472;2022-09-30T06:27:27;14.40;;;10.78;;
34035;SDS011;63481;52.588;22.472;2022-09-30T06:28:18;15.28;;;11.45;;